Time;durP1;ratioP1;P1;durP2;ratioP2;P2;SDS_P1;SDS_P2;PMS_P1;PMS_P2;Temp;Humidity;BMP_temperature;BMP_pressure;BME280_temperature;BME280_humidity;BME280_pressure;Samples;Min_cycle;Max_cycle;Signal;HPM_P1;HPM_P2
2022/05/22 00:01:14;;;;;;;1.70;0.90;;;21.30;83.40;;;;;;5064469;28;46588;-70
2022/05/22 00:03:41;;;;;;;1.88;1.10;;;21.40;83.60;;;;;;5066152;28;45326;-70
2022/05/22 00:06:08;;;;;;;2.22;0.93;;;21.40;83.60;;;;;;5061152;28;45391;-70
2022/05/22 00:08:35;;;;;;;1.70;1.02;;;21.40;83.50;;;;;;5068656;28;45299;-70
2022/05/22 00:11:03;;;;;;;2.85;1.15;;;21.30;83.70;;;;;;5063452;28;45405;-70
2022/05/22 00:13:30;;;;;;;1.90;1.00;;;21.30;83.80;;;;;;5065520;28;45216;-70
2022/05/22 00:18:41;;;;;;;1.83;0.90;;;21.30;83.90;;;;;;5060631;28;45256;-70
2022/05/22 00:21:08;;;;;;;2.50;0.93;;;21.30;83.80;;;;;;5059569;28;45429;-70
2022/05/22 00:23:35;;;;;;;1.88;1.20;;;21.30;83.50;;;;;;5061166;28;45287;-70
2022/05/22 00:26:03;;;;;;;2.65;1.00;;;21.30;83.60;;;;;;5066886;28;45322;-70
2022/05/22 00:28:30;;;;;;;2.83;1.10;;;21.30;83.40;;;;;;5064542;28;45166;-70
2022/05/22 00:30:57;;;;;;;1.50;1.10;;;21.30;83.40;;;;;;5080776;28;47938;-70
2022/05/22 00:33:24;;;;;;;2.42;1.00;;;21.30;83.30;;;;;;5081589;28;45211;-70
2022/05/22 00:35:50;;;;;;;2.00;1.00;;;21.30;83.30;;;;;;5073439;28;45399;-70
2022/05/22 00:38:17;;;;;;;1.63;1.05;;;21.30;83.30;;;;;;5078762;28;45318;-70
2022/05/22 00:40:44;;;;;;;1.70;1.00;;;21.30;83.30;;;;;;5080984;28;46561;-70
2022/05/22 00:43:26;;;;;;;2.20;1.20;;;21.30;83.20;;;;;;5081713;28;45243;-70
2022/05/22 00:45:53;;;;;;;1.85;1.02;;;21.30;83.20;;;;;;5078661;28;45283;-70
2022/05/22 00:48:20;;;;;;;2.60;1.10;;;21.30;83.10;;;;;;5070044;28;45378;-70
2022/05/22 00:50:47;;;;;;;2.13;0.95;;;21.30;83.10;;;;;;5070746;28;47453;-70
2022/05/22 00:53:15;;;;;;;1.67;1.10;;;21.30;83.10;;;;;;5074250;28;45307;-70
2022/05/22 00:55:41;;;;;;;3.72;1.10;;;21.40;83.20;;;;;;5077827;28;45311;-70
2022/05/22 00:58:13;;;;;;;1.75;1.10;;;21.30;83.20;;;;;;5076501;28;45595;-70
2022/05/22 01:00:42;;;;;;;1.80;1.27;;;21.30;83.10;;;;;;5078565;28;46245;-70
2022/05/22 01:03:31;;;;;;;2.10;0.90;;;21.30;83.20;;;;;;5062237;28;45218;-70
2022/05/22 01:06:03;;;;;;;2.25;0.90;;;21.30;83.20;;;;;;5065395;28;45657;-70
2022/05/22 01:08:31;;;;;;;2.45;1.10;;;21.30;83.20;;;;;;5061877;28;45196;-70
2022/05/22 01:11:02;;;;;;;1.83;1.05;;;21.30;83.00;;;;;;5065299;28;46291;-71
2022/05/22 01:13:33;;;;;;;2.75;1.20;;;21.30;82.80;;;;;;5062755;28;45311;-71
2022/05/22 01:16:02;;;;;;;2.17;0.95;;;21.30;82.80;;;;;;5086048;28;45339;-71
2022/05/22 01:18:30;;;;;;;1.42;0.85;;;21.30;82.80;;;;;;5073580;28;45329;-70
2022/05/22 01:20:57;;;;;;;2.50;1.05;;;21.30;82.60;;;;;;5065513;28;48165;-71
2022/05/22 01:23:25;;;;;;;2.78;0.93;;;21.30;82.50;;;;;;5071219;28;45309;-70
2022/05/22 01:25:52;;;;;;;1.85;1.02;;;21.30;82.40;;;;;;5085473;28;45195;-71
2022/05/22 01:28:20;;;;;;;1.40;1.00;;;21.40;82.50;;;;;;5068033;28;45243;-71
2022/05/22 01:30:47;;;;;;;1.15;0.93;;;21.30;82.40;;;;;;5078121;28;46264;-71
2022/05/22 01:33:13;;;;;;;0.90;0.73;;;21.40;82.40;;;;;;5074777;28;45629;-71
2022/05/22 01:35:40;;;;;;;2.08;1.00;;;21.40;82.40;;;;;;5083223;28;45203;-70
2022/05/22 01:38:08;;;;;;;1.75;1.00;;;21.30;82.30;;;;;;5077336;28;45351;-70
2022/05/22 01:40:36;;;;;;;1.85;0.90;;;21.40;82.40;;;;;;5063480;28;47900;-70
2022/05/22 01:43:03;;;;;;;1.70;1.08;;;21.40;82.40;;;;;;5072692;28;45116;-71
2022/05/22 01:45:30;;;;;;;1.23;0.90;;;21.40;82.20;;;;;;5074897;28;45247;-70
2022/05/22 01:47:57;;;;;;;1.63;1.00;;;21.30;82.10;;;;;;5069044;28;45461;-71
2022/05/22 01:50:24;;;;;;;1.38;0.75;;;21.30;82.20;;;;;;5078712;28;46606;-70
2022/05/22 01:52:51;;;;;;;2.03;0.90;;;21.30;82.20;;;;;;5067062;28;45175;-71
2022/05/22 01:55:18;;;;;;;1.80;0.98;;;21.30;82.20;;;;;;5067631;28;45186;-70
2022/05/22 01:57:47;;;;;;;2.53;1.05;;;21.30;82.30;;;;;;5071329;27;45164;-70
2022/05/22 02:00:16;;;;;;;1.60;1.05;;;21.30;82.40;;;;;;5077888;28;46467;-70
2022/05/22 02:02:44;;;;;;;0.75;0.75;;;21.30;82.30;;;;;;5066108;28;45303;-71
2022/05/22 02:05:11;;;;;;;1.38;0.98;;;21.30;82.20;;;;;;5078890;28;45390;-71
2022/05/22 02:10:24;;;;;;;1.30;0.80;;;21.30;81.90;;;;;;5071680;28;45733;-70
2022/05/22 02:12:53;;;;;;;2.17;1.08;;;21.30;82.00;;;;;;5077721;28;45186;-70
2022/05/22 02:15:21;;;;;;;1.35;0.80;;;21.30;82.00;;;;;;5059417;28;45276;-71
2022/05/22 02:17:47;;;;;;;2.03;1.00;;;21.30;82.20;;;;;;5072729;28;45313;-71
2022/05/22 02:20:14;;;;;;;2.85;1.13;;;21.30;81.90;;;;;;5070011;28;47393;-70
2022/05/22 02:22:43;;;;;;;1.08;0.80;;;21.30;81.80;;;;;;5066608;28;45424;-71
2022/05/22 02:25:11;;;;;;;1.92;1.15;;;21.30;81.70;;;;;;5066489;28;45206;-71
2022/05/22 02:27:37;;;;;;;2.08;1.13;;;21.30;81.70;;;;;;5069532;28;45219;-71
2022/05/22 02:30:08;;;;;;;1.10;0.80;;;21.30;81.70;;;;;;5075119;28;45402;-70
2022/05/22 02:32:36;;;;;;;1.60;1.00;;;21.30;81.50;;;;;;5061155;28;45274;-71
2022/05/22 02:35:04;;;;;;;1.40;0.90;;;21.30;81.60;;;;;;5080724;28;45302;-71
2022/05/22 02:37:31;;;;;;;1.48;0.88;;;21.30;81.70;;;;;;5074167;28;45100;-71
2022/05/22 02:39:58;;;;;;;1.67;1.10;;;21.30;81.50;;;;;;5075864;28;47108;-71
2022/05/22 02:42:25;;;;;;;1.85;1.10;;;21.30;81.30;;;;;;5074939;28;45403;-71
2022/05/22 02:44:52;;;;;;;1.73;1.10;;;21.40;81.40;;;;;;5083584;28;45265;-71
2022/05/22 02:47:20;;;;;;;2.85;1.02;;;21.30;81.20;;;;;;5079021;28;45309;-71
2022/05/22 02:49:47;;;;;;;1.88;0.90;;;21.30;81.20;;;;;;5071550;28;45367;-70
2022/05/22 02:52:13;;;;;;;1.60;1.00;;;21.30;81.40;;;;;;5074192;28;45352;-71
2022/05/22 02:54:40;;;;;;;1.02;0.90;;;21.30;81.50;;;;;;5073452;28;45498;-71
2022/05/22 02:57:07;;;;;;;1.58;1.08;;;21.30;81.70;;;;;;5081657;28;45433;-71
2022/05/22 02:59:35;;;;;;;2.70;1.08;;;21.30;81.70;;;;;;5070551;28;47964;-71
2022/05/22 03:02:02;;;;;;;1.48;0.80;;;21.30;81.50;;;;;;5075284;28;45331;-71
2022/05/22 03:04:31;;;;;;;1.25;1.00;;;21.30;81.60;;;;;;5074279;28;45388;-70
2022/05/22 03:06:58;;;;;;;1.48;0.98;;;21.30;81.50;;;;;;5066755;28;45328;-71
2022/05/22 03:09:25;;;;;;;2.00;0.98;;;21.30;81.40;;;;;;5067279;28;46543;-71
2022/05/22 03:11:53;;;;;;;1.95;1.00;;;21.30;81.40;;;;;;5072938;28;45209;-71
2022/05/22 03:14:19;;;;;;;2.22;1.20;;;21.30;81.50;;;;;;5069430;28;45296;-71
2022/05/22 03:16:46;;;;;;;2.10;1.00;;;21.30;81.80;;;;;;5073019;28;45465;-71
2022/05/22 03:19:14;;;;;;;2.25;1.00;;;21.30;81.50;;;;;;5076885;28;46606;-71
2022/05/22 03:21:43;;;;;;;1.83;1.10;;;21.30;81.20;;;;;;5076397;28;45175;-70
2022/05/22 03:24:09;;;;;;;3.05;1.50;;;21.30;81.10;;;;;;5075095;28;45316;-70
2022/05/22 03:26:36;;;;;;;1.48;1.00;;;21.30;81.10;;;;;;5068061;28;45469;-71
2022/05/22 03:29:03;;;;;;;2.90;1.20;;;21.30;81.00;;;;;;5081361;28;47374;-70
2022/05/22 03:31:30;;;;;;;2.33;1.10;;;21.30;81.00;;;;;;5074110;28;45324;-71
2022/05/22 03:33:57;;;;;;;2.30;1.23;;;21.30;81.10;;;;;;5076605;28;45352;-70
2022/05/22 03:36:24;;;;;;;2.22;1.25;;;21.30;80.80;;;;;;5077315;28;45266;-71
2022/05/22 03:38:52;;;;;;;1.25;1.15;;;21.30;80.90;;;;;;5077997;28;47950;-71
2022/05/22 03:41:19;;;;;;;2.05;0.90;;;21.30;80.80;;;;;;5072451;28;45381;-70
2022/05/22 03:43:46;;;;;;;2.05;1.10;;;21.30;80.80;;;;;;5071565;28;45269;-71
2022/05/22 03:46:13;;;;;;;2.20;1.25;;;21.30;80.80;;;;;;5079991;28;45219;-70
2022/05/22 03:48:42;;;;;;;1.90;1.10;;;21.30;80.70;;;;;;5075884;28;45466;-71
2022/05/22 03:51:09;;;;;;;2.25;1.08;;;21.30;81.00;;;;;;5065616;28;45613;-71
2022/05/22 03:53:36;;;;;;;2.10;1.00;;;21.30;81.10;;;;;;5062241;28;45224;-70
2022/05/22 03:56:11;;;;;;;4.85;1.50;;;21.30;81.20;;;;;;5069021;28;45122;-71
2022/05/22 03:58:38;;;;;;;3.47;1.27;;;21.30;80.70;;;;;;5067755;28;47056;-71
2022/05/22 04:01:04;;;;;;;1.80;1.17;;;21.30;81.20;;;;;;5072037;28;45357;-71
2022/05/22 04:03:31;;;;;;;1.83;1.30;;;21.30;81.00;;;;;;5069060;28;45581;-70
2022/05/22 04:05:58;;;;;;;1.83;1.20;;;21.30;81.20;;;;;;5071644;28;45200;-71
2022/05/22 04:08:25;;;;;;;2.20;1.05;;;21.30;81.10;;;;;;5063083;28;46188;-70
2022/05/22 04:10:52;;;;;;;2.40;1.13;;;21.30;80.90;;;;;;5062390;28;45179;-70
2022/05/22 04:13:20;;;;;;;1.27;1.05;;;21.30;81.10;;;;;;5075928;28;45227;-71
2022/05/22 04:15:47;;;;;;;1.90;1.15;;;21.30;81.00;;;;;;5266665;22;45315;-70
2022/05/22 04:18:14;;;;;;;2.17;1.05;;;21.30;81.20;;;;;;5057070;28;47452;-70
2022/05/22 04:20:41;;;;;;;2.05;1.10;;;21.30;82.00;;;;;;5053122;28;45263;-70
2022/05/22 04:25:54;;;;;;;1.35;1.20;;;21.30;80.80;;;;;;5054834;28;45267;-71
2022/05/22 04:28:22;;;;;;;2.10;1.17;;;21.30;80.80;;;;;;5047724;28;48400;-71
2022/05/22 04:30:49;;;;;;;2.17;1.10;;;21.30;80.80;;;;;;5061190;28;45341;-71
2022/05/22 04:33:16;;;;;;;1.98;1.30;;;21.30;80.70;;;;;;5049780;28;45375;-71
2022/05/22 04:35:43;;;;;;;1.40;1.08;;;21.30;80.70;;;;;;5045447;28;45333;-71
2022/05/22 04:38:11;;;;;;;1.40;0.93;;;21.30;80.70;;;;;;5062475;28;47896;-70
2022/05/22 04:40:38;;;;;;;1.63;1.10;;;21.30;80.50;;;;;;5055309;28;45735;-71
2022/05/22 04:43:06;;;;;;;2.05;1.10;;;21.30;80.50;;;;;;5052361;28;45571;-71
2022/05/22 04:45:34;;;;;;;1.33;1.20;;;21.30;80.60;;;;;;5041377;28;45256;-71
2022/05/22 04:48:01;;;;;;;2.38;1.17;;;21.30;80.80;;;;;;5048906;28;45301;-71
2022/05/22 04:50:28;;;;;;;1.67;1.20;;;21.30;81.10;;;;;;5055430;28;45219;-71
2022/05/22 04:52:56;;;;;;;1.45;1.20;;;21.30;81.00;;;;;;5050783;28;45330;-71
2022/05/22 04:55:22;;;;;;;1.95;1.30;;;21.30;81.10;;;;;;5033909;28;45328;-71
2022/05/22 04:57:49;;;;;;;2.38;1.13;;;21.30;81.10;;;;;;5052222;28;46915;-71
2022/05/22 05:00:17;;;;;;;1.48;1.20;;;21.30;81.20;;;;;;5053591;28;45658;-71
2022/05/22 05:02:45;;;;;;;1.55;1.02;;;21.30;81.20;;;;;;5045158;28;45515;-71
2022/05/22 05:05:12;;;;;;;1.58;1.20;;;21.30;81.20;;;;;;5034652;28;45310;-70
2022/05/22 05:07:39;;;;;;;2.20;1.27;;;21.30;81.30;;;;;;5048071;28;47139;-71
2022/05/22 05:10:07;;;;;;;2.05;1.17;;;21.30;81.20;;;;;;5052092;28;45247;-71
2022/05/22 05:12:36;;;;;;;2.28;1.33;;;21.30;81.40;;;;;;5047943;28;45306;-71
2022/05/22 05:15:03;;;;;;;2.45;1.20;;;21.30;81.40;;;;;;5047026;28;45517;-70
2022/05/22 05:17:30;;;;;;;2.65;1.35;;;21.30;81.40;;;;;;5047839;28;47085;-71
2022/05/22 05:19:59;;;;;;;1.67;0.93;;;21.30;81.40;;;;;;5042824;28;45549;-71
2022/05/22 05:22:26;;;;;;;4.38;1.05;;;21.30;81.20;;;;;;5033929;28;45339;-70
2022/05/22 05:24:52;;;;;;;2.22;1.40;;;21.30;81.20;;;;;;5055280;28;45230;-71
2022/05/22 05:27:19;;;;;;;1.80;1.30;;;21.30;81.10;;;;;;5047534;28;46700;-71
2022/05/22 05:29:46;;;;;;;2.42;1.35;;;21.30;81.00;;;;;;5055358;28;45183;-71
2022/05/22 05:32:13;;;;;;;1.90;1.42;;;21.30;81.10;;;;;;5055673;28;45408;-71
2022/05/22 05:34:39;;;;;;;1.98;1.30;;;21.30;81.10;;;;;;5060181;28;45183;-71
2022/05/22 05:37:08;;;;;;;2.22;1.30;;;21.30;81.10;;;;;;5056171;28;47426;-71
2022/05/22 05:39:36;;;;;;;1.75;1.42;;;21.30;81.10;;;;;;5055174;28;45175;-71
2022/05/22 05:42:03;;;;;;;3.35;1.50;;;21.30;81.00;;;;;;5042573;28;45427;-70
2022/05/22 05:44:29;;;;;;;2.17;1.45;;;21.30;81.20;;;;;;5059513;28;45261;-71
2022/05/22 05:46:56;;;;;;;2.22;1.15;;;21.30;81.20;;;;;;5045246;28;47417;-71
2022/05/22 05:49:23;;;;;;;1.70;1.10;;;21.30;81.30;;;;;;5055952;28;45397;-71
2022/05/22 05:51:50;;;;;;;2.65;1.23;;;21.30;81.40;;;;;;5053042;28;45450;-71
2022/05/22 05:54:18;;;;;;;2.10;1.30;;;21.30;81.30;;;;;;5046014;28;45096;-71
2022/05/22 05:56:45;;;;;;;2.35;1.38;;;21.30;81.40;;;;;;5052301;28;46190;-70
2022/05/22 05:59:11;;;;;;;1.40;1.27;;;21.30;81.40;;;;;;5050075;28;45426;-71
2022/05/22 06:01:38;;;;;;;1.52;1.00;;;21.30;81.40;;;;;;5044445;28;45267;-71
2022/05/22 06:04:05;;;;;;;1.35;1.05;;;21.30;81.40;;;;;;5061835;28;45618;-71
2022/05/22 06:06:32;;;;;;;2.33;1.23;;;21.30;81.40;;;;;;5038372;28;45319;-71
2022/05/22 06:08:59;;;;;;;2.25;1.70;;;21.20;81.30;;;;;;5051635;28;45232;-71
2022/05/22 06:11:28;;;;;;;1.80;1.33;;;21.30;81.50;;;;;;5044348;28;45294;-71
2022/05/22 06:13:55;;;;;;;1.90;1.38;;;21.30;81.60;;;;;;5049761;28;45371;-71
2022/05/22 06:16:22;;;;;;;1.70;1.08;;;21.30;81.50;;;;;;5060662;28;47515;-71
2022/05/22 06:18:48;;;;;;;2.22;1.40;;;21.30;81.50;;;;;;5053988;28;45424;-71
2022/05/22 06:21:18;;;;;;;1.98;1.42;;;21.30;81.50;;;;;;5051814;28;45309;-71
2022/05/22 06:23:45;;;;;;;3.70;1.67;;;21.30;81.30;;;;;;5046616;28;45357;-71
2022/05/22 06:26:14;;;;;;;4.85;1.58;;;21.30;81.70;;;;;;5057987;28;47094;-71
2022/05/22 06:28:42;;;;;;;4.10;1.40;;;21.30;81.90;;;;;;5048048;28;45277;-71
2022/05/22 06:31:09;;;;;;;2.38;1.35;;;21.40;81.70;;;;;;5053235;28;45188;-71
2022/05/22 06:33:37;;;;;;;4.45;1.30;;;21.30;81.40;;;;;;5054615;28;45172;-71
2022/05/22 06:36:08;;;;;;;3.15;1.40;;;21.30;81.40;;;;;;5054812;28;47295;-70
2022/05/22 06:41:19;;;;;;;3.92;1.65;;;21.30;81.50;;;;;;5057247;28;45149;-71
2022/05/22 06:43:49;;;;;;;4.13;1.38;;;21.30;81.60;;;;;;5048658;28;45158;-71
2022/05/22 06:46:16;;;;;;;2.72;1.23;;;21.30;81.70;;;;;;5054166;28;45537;-71
2022/05/22 06:48:43;;;;;;;4.20;1.77;;;21.30;81.90;;;;;;5041130;28;45323;-71
2022/05/22 06:51:10;;;;;;;2.33;1.27;;;21.30;81.80;;;;;;5054764;28;45606;-71
2022/05/22 06:53:37;;;;;;;2.22;1.30;;;21.30;81.80;;;;;;5051039;28;45213;-71
2022/05/22 06:56:04;;;;;;;2.08;1.25;;;21.30;82.00;;;;;;5038125;28;45631;-71
2022/05/22 06:58:31;;;;;;;3.45;1.45;;;21.20;82.00;;;;;;5047276;28;45534;-70
2022/05/22 07:00:59;;;;;;;9.65;1.40;;;21.30;82.20;;;;;;5035872;28;45298;-71
2022/05/22 07:03:26;;;;;;;2.70;1.20;;;21.30;82.60;;;;;;5037189;28;45272;-71
2022/05/22 07:05:53;;;;;;;1.95;1.40;;;21.30;83.00;;;;;;5046592;28;45990;-69
2022/05/22 07:08:19;;;;;;;7.53;1.77;;;21.30;82.80;;;;;;5048672;28;45424;-71
2022/05/22 07:13:30;;;;;;;6.50;1.50;;;21.30;82.80;;;;;;5041025;28;45208;-71
2022/05/22 07:16:00;;;;;;;5.85;1.38;;;21.30;82.60;;;;;;5042057;28;46287;-71
2022/05/22 07:18:27;;;;;;;4.80;1.40;;;21.30;82.60;;;;;;5042938;28;45185;-71
2022/05/22 07:20:54;;;;;;;2.92;1.40;;;21.30;82.50;;;;;;5048497;28;45130;-71
2022/05/22 07:23:20;;;;;;;3.28;1.63;;;21.30;82.50;;;;;;5043387;28;45288;-71
2022/05/22 07:25:47;;;;;;;2.22;1.30;;;21.30;82.50;;;;;;5028454;28;46286;-71
2022/05/22 07:28:14;;;;;;;3.33;1.63;;;21.30;82.40;;;;;;5027684;28;45316;-71
2022/05/22 07:30:41;;;;;;;2.78;1.10;;;21.30;82.50;;;;;;5029851;28;45161;-71
2022/05/22 07:33:09;;;;;;;2.65;1.38;;;21.30;82.40;;;;;;5034073;28;45334;-71
2022/05/22 07:35:36;;;;;;;3.17;1.40;;;21.10;82.20;;;;;;5049034;28;45321;-71
2022/05/22 07:38:03;;;;;;;3.78;1.33;;;21.30;82.40;;;;;;5049908;28;45319;-71
2022/05/22 07:40:31;;;;;;;3.65;1.40;;;21.30;82.40;;;;;;5046260;28;45639;-71
2022/05/22 07:42:57;;;;;;;2.67;1.30;;;21.30;82.40;;;;;;5035534;28;45220;-71
2022/05/22 07:45:24;;;;;;;2.97;1.33;;;21.30;82.30;;;;;;5029243;28;46191;-71
2022/05/22 07:47:52;;;;;;;3.53;1.30;;;21.30;82.30;;;;;;5028372;28;46257;-70
2022/05/22 07:50:21;;;;;;;2.40;1.48;;;21.30;82.20;;;;;;5035686;28;45267;-71
2022/05/22 07:52:49;;;;;;;3.50;1.52;;;21.30;82.00;;;;;;5049472;28;45374;-71
2022/05/22 07:55:18;;;;;;;3.45;1.35;;;21.30;81.90;;;;;;5049578;28;45236;-71
2022/05/22 07:57:47;;;;;;;2.50;1.40;;;21.30;81.90;;;;;;5046315;28;45210;-71
2022/05/22 08:00:18;;;;;;;2.55;1.23;;;21.30;81.80;;;;;;5049036;28;45274;-71
2022/05/22 08:02:45;;;;;;;3.38;1.30;;;21.30;81.80;;;;;;5048124;28;45477;-71
2022/05/22 08:05:13;;;;;;;2.10;1.20;;;21.30;81.90;;;;;;5047075;28;47948;-71
2022/05/22 08:07:41;;;;;;;2.42;1.15;;;21.30;81.90;;;;;;5042115;28;45187;-71
2022/05/22 08:10:10;;;;;;;1.98;1.25;;;21.40;81.90;;;;;;5049062;28;45383;-71
2022/05/22 08:12:38;;;;;;;3.00;1.30;;;21.40;81.70;;;;;;5046281;28;45520;-70
2022/05/22 08:15:06;;;;;;;2.45;1.52;;;21.40;81.80;;;;;;5036321;28;45203;-71
2022/05/22 08:17:36;;;;;;;2.60;1.30;;;21.40;81.70;;;;;;5027848;28;45246;-71
2022/05/22 08:20:04;;;;;;;2.22;1.33;;;21.40;81.70;;;;;;5027079;28;45268;-71
2022/05/22 08:22:31;;;;;;;3.17;1.42;;;21.40;81.70;;;;;;5030894;28;45413;-71
2022/05/22 08:25:00;;;;;;;2.38;1.40;;;21.40;81.70;;;;;;5042896;28;46442;-71
2022/05/22 08:27:28;;;;;;;3.67;1.67;;;21.40;81.70;;;;;;5040961;28;45263;-71
2022/05/22 08:29:55;;;;;;;2.63;1.58;;;21.40;81.70;;;;;;5039564;28;45415;-70
2022/05/22 08:32:22;;;;;;;3.63;1.45;;;21.40;81.70;;;;;;5044316;28;46485;-71
2022/05/22 08:34:49;;;;;;;2.45;1.40;;;21.40;81.60;;;;;;5045443;28;46120;-71
2022/05/22 08:37:16;;;;;;;2.17;1.42;;;21.40;81.70;;;;;;5048176;28;45219;-70
2022/05/22 08:39:43;;;;;;;2.75;1.40;;;21.40;81.70;;;;;;5047606;28;45232;-71
2022/05/22 08:42:16;;;;;;;1.55;1.10;;;21.40;81.70;;;;;;5048886;28;45522;-71
2022/05/22 08:44:43;;;;;;;2.13;1.00;;;21.40;81.60;;;;;;5031005;28;45349;-70
2022/05/22 08:47:19;;;;;;;1.60;1.02;;;21.40;81.50;;;;;;5031513;28;45334;-70
2022/05/22 08:49:50;;;;;;;2.72;1.50;;;21.40;81.40;;;;;;5040783;28;45279;-71
2022/05/22 08:52:27;;;;;;;3.60;1.27;;;21.40;81.40;;;;;;5029096;28;45296;-70
2022/05/22 08:54:59;;;;;;;2.10;1.50;;;21.40;81.10;;;;;;5038357;28;45616;-70
2022/05/22 09:00:18;;;;;;;1.63;1.10;;;21.40;80.90;;;;;;5028551;28;45249;-70
2022/05/22 09:02:52;;;;;;;1.55;1.27;;;21.40;81.70;;;;;;5027692;28;45172;-71
2022/05/22 09:05:24;;;;;;;3.35;1.25;;;21.40;80.50;;;;;;5028728;28;46506;-71
2022/05/22 09:07:55;;;;;;;2.78;1.25;;;21.40;80.40;;;;;;5040722;28;45217;-71
2022/05/22 09:10:33;;;;;;;2.95;1.33;;;21.40;80.50;;;;;;5035560;28;45372;-71
2022/05/22 09:13:09;;;;;;;3.72;1.40;;;21.40;80.30;;;;;;5026445;28;45272;-70
2022/05/22 09:15:42;;;;;;;2.10;1.48;;;21.40;80.10;;;;;;5036232;28;45481;-69
2022/05/22 09:18:19;;;;;;;2.42;1.38;;;21.40;79.50;;;;;;5035258;28;45812;-70
2022/05/22 09:20:53;;;;;;;1.67;0.90;;;21.40;79.40;;;;;;5035743;28;45278;-70
2022/05/22 09:23:32;;;;;;;8.10;1.90;;;21.50;79.60;;;;;;5042543;28;45225;-71
2022/05/22 09:26:07;;;;;;;2.28;1.35;;;21.50;79.50;;;;;;5029779;28;45990;-71
2022/05/22 09:28:46;;;;;;;4.03;1.27;;;21.50;79.60;;;;;;5039145;28;45313;-70
2022/05/22 09:31:22;;;;;;;5.78;1.40;;;21.50;79.60;;;;;;5040912;28;45339;-70
2022/05/22 09:33:58;;;;;;;3.80;1.70;;;21.50;79.50;;;;;;5040241;28;45335;-71
2022/05/22 09:36:32;;;;;;;1.73;1.38;;;21.50;79.60;;;;;;5042342;28;45205;-71
2022/05/22 09:39:08;;;;;;;2.25;1.52;;;21.50;79.50;;;;;;5039084;28;45226;-71
2022/05/22 09:41:49;;;;;;;2.22;1.63;;;21.50;79.50;;;;;;5043819;28;45168;-71
2022/05/22 09:44:51;;;;;;;2.70;1.58;;;21.50;79.60;;;;;;5044256;28;45232;-70
2022/05/22 09:47:40;;;;;;;2.13;1.20;;;21.50;79.50;;;;;;5017070;28;47521;-71
2022/05/22 09:50:20;;;;;;;3.00;1.30;;;21.50;79.50;;;;;;5009995;28;45710;-71
2022/05/22 09:52:54;;;;;;;2.00;1.10;;;21.50;79.50;;;;;;5036950;28;45267;-70
2022/05/22 09:55:33;;;;;;;2.33;1.20;;;21.50;79.50;;;;;;5040377;28;45166;-71
2022/05/22 09:58:16;;;;;;;1.90;1.20;;;21.50;79.60;;;;;;5037857;28;45366;-71
2022/05/22 10:00:51;;;;;;;4.53;1.70;;;21.50;79.60;;;;;;5035192;28;45280;-71
2022/05/22 10:03:26;;;;;;;2.75;1.40;;;21.50;79.60;;;;;;5030955;28;45379;-71
2022/05/22 10:06:01;;;;;;;2.90;1.40;;;21.50;79.50;;;;;;5038484;28;45443;-71
2022/05/22 10:08:38;;;;;;;3.38;1.23;;;21.60;79.60;;;;;;5039336;28;47245;-71
2022/05/22 10:11:12;;;;;;;3.40;1.52;;;21.60;79.60;;;;;;5038339;28;45350;-71
2022/05/22 10:14:05;;;;;;;2.90;1.52;;;21.60;79.60;;;;;;5037436;28;45424;-71
2022/05/22 10:16:45;;;;;;;4.25;1.55;;;21.60;79.60;;;;;;5038947;28;45236;-71
2022/05/22 10:19:25;;;;;;;3.08;1.58;;;21.60;79.40;;;;;;5035023;28;46752;-71
2022/05/22 10:21:59;;;;;;;3.42;1.73;;;21.60;79.10;;;;;;5036592;28;45266;-71
2022/05/22 10:24:40;;;;;;;2.90;1.50;;;21.60;78.80;;;;;;5041761;28;45247;-71
2022/05/22 10:27:19;;;;;;;2.83;1.10;;;21.60;78.40;;;;;;5038352;28;45556;-71
2022/05/22 10:29:51;;;;;;;2.17;1.10;;;21.60;78.20;;;;;;5036936;28;45422;-71
2022/05/22 10:32:23;;;;;;;4.00;1.50;;;21.60;77.90;;;;;;5037502;28;45626;-70
2022/05/22 10:34:55;;;;;;;5.97;1.17;;;21.60;79.40;;;;;;5041306;28;45172;-71
2022/05/22 10:37:34;;;;;;;1.35;1.20;;;21.60;83.10;;;;;;5031787;28;45602;-71
2022/05/22 10:40:03;;;;;;;2.95;1.10;;;21.70;83.50;;;;;;5044040;28;45361;-71
2022/05/22 10:42:46;;;;;;;2.03;1.00;;;21.80;83.90;;;;;;5042629;28;45235;-71
2022/05/22 10:45:21;;;;;;;1.38;1.20;;;22.00;83.10;;;;;;5042960;28;45365;-71
2022/05/22 10:47:50;;;;;;;2.97;1.33;;;22.20;82.80;;;;;;5039627;28;45621;-71
2022/05/22 10:50:21;;;;;;;2.15;0.95;;;22.40;82.40;;;;;;5041896;28;45983;-71
2022/05/22 10:52:48;;;;;;;1.50;1.13;;;22.60;82.40;;;;;;5048551;28;45167;-72
2022/05/22 10:55:34;;;;;;;1.60;1.15;;;22.80;82.80;;;;;;5046973;28;45227;-72
2022/05/22 10:58:03;;;;;;;2.70;1.33;;;23.00;82.70;;;;;;5049984;28;46014;-72
2022/05/22 11:00:31;;;;;;;3.15;1.25;;;23.10;82.50;;;;;;5039535;28;47263;-71
2022/05/22 11:03:11;;;;;;;2.70;1.20;;;23.20;82.90;;;;;;5049709;28;45255;-72
2022/05/22 11:05:38;;;;;;;2.60;1.33;;;23.30;82.90;;;;;;5047236;28;45456;-71
2022/05/22 11:08:05;;;;;;;1.48;1.02;;;23.50;83.10;;;;;;5038647;28;45375;-71
2022/05/22 11:10:35;;;;;;;4.22;1.20;;;23.60;82.40;;;;;;5048426;28;46203;-73
2022/05/22 11:13:04;;;;;;;2.83;1.40;;;23.60;82.80;;;;;;5043633;28;45207;-72
2022/05/22 11:15:33;;;;;;;3.10;1.30;;;23.70;82.80;;;;;;5048142;28;45227;-72
2022/05/22 11:18:07;;;;;;;1.58;1.17;;;23.80;82.30;;;;;;5044816;28;45431;-73
2022/05/22 11:20:34;;;;;;;3.78;1.27;;;23.90;82.30;;;;;;5043089;28;46273;-73
2022/05/22 11:23:12;;;;;;;2.70;1.35;;;24.00;81.80;;;;;;5043445;28;45591;-73
2022/05/22 11:25:48;;;;;;;2.58;1.33;;;24.00;82.80;;;;;;5037185;28;45605;-73
2022/05/22 11:28:43;;;;;;;2.95;1.58;;;24.10;81.80;;;;;;5048041;28;45237;-73
2022/05/22 11:31:22;;;;;;;4.18;1.63;;;24.10;81.80;;;;;;5038633;28;45652;-73
2022/05/22 11:34:05;;;;;;;4.38;1.52;;;24.00;81.70;;;;;;5046287;28;45669;-73
2022/05/22 11:36:45;;;;;;;2.63;1.30;;;23.90;81.70;;;;;;5040295;28;45356;-73
2022/05/22 11:39:33;;;;;;;2.92;1.25;;;23.90;81.70;;;;;;5034059;28;45464;-73
2022/05/22 11:42:11;;;;;;;4.43;1.45;;;23.90;82.30;;;;;;5047381;28;45254;-73
2022/05/22 11:44:55;;;;;;;4.00;1.70;;;24.00;82.90;;;;;;5044905;28;45336;-73
2022/05/22 11:47:44;;;;;;;4.72;1.75;;;24.00;83.40;;;;;;5030540;28;45406;-73
2022/05/22 11:50:23;;;;;;;2.95;1.30;;;24.20;82.60;;;;;;5031812;28;46724;-71
2022/05/22 11:53:03;;;;;;;2.35;1.45;;;24.20;81.90;;;;;;5036083;28;47077;-71
2022/05/22 11:55:41;;;;;;;3.05;1.60;;;24.10;81.80;;;;;;5041216;28;45319;-71
2022/05/22 11:58:20;;;;;;;4.63;1.60;;;24.10;81.80;;;;;;5031013;28;45225;-71
2022/05/22 12:00:57;;;;;;;3.90;1.50;;;24.00;81.70;;;;;;5043373;28;45378;-71
2022/05/22 12:03:47;;;;;;;3.35;1.63;;;23.90;81.70;;;;;;5046051;28;47253;-72
2022/05/22 12:06:27;;;;;;;4.90;1.88;;;23.50;81.30;;;;;;5041169;28;45330;-71
2022/05/22 12:09:12;;;;;;;3.72;1.90;;;23.10;82.20;;;;;;5035417;28;45291;-71
2022/05/22 12:11:46;;;;;;;3.78;1.85;;;22.90;82.70;;;;;;5040751;28;45529;-71
2022/05/22 12:14:23;;;;;;;3.03;1.50;;;22.80;82.90;;;;;;5039221;28;47419;-71
2022/05/22 12:16:57;;;;;;;5.32;1.73;;;22.70;83.70;;;;;;5032407;28;46361;-71
2022/05/22 12:19:36;;;;;;;4.95;1.90;;;22.60;82.70;;;;;;5047349;28;45574;-71
2022/05/22 12:22:15;;;;;;;4.88;1.80;;;22.50;83.30;;;;;;5034784;28;45259;-72
2022/05/22 12:24:47;;;;;;;4.80;1.77;;;22.50;84.20;;;;;;5032755;28;45942;-71
2022/05/22 12:27:21;;;;;;;4.43;1.85;;;22.30;83.80;;;;;;5041427;28;45325;-73
2022/05/22 12:30:09;;;;;;;2.85;1.85;;;22.30;83.80;;;;;;5038419;28;45278;-73
2022/05/22 12:32:46;;;;;;;4.13;1.70;;;22.30;83.40;;;;;;5034408;28;45339;-71
2022/05/22 12:35:15;;;;;;;3.55;1.48;;;22.30;83.00;;;;;;5037547;28;46207;-73
2022/05/22 12:37:45;;;;;;;4.65;1.77;;;22.20;83.00;;;;;;5039300;28;46506;-73
2022/05/22 12:40:25;;;;;;;2.83;1.60;;;22.20;82.10;;;;;;5043585;28;45316;-72
2022/05/22 12:42:54;;;;;;;3.58;1.58;;;22.20;82.30;;;;;;5037431;28;45331;-73
2022/05/22 12:45:25;;;;;;;3.78;1.20;;;22.10;83.10;;;;;;5032114;28;45983;-73
2022/05/22 12:47:53;;;;;;;3.75;1.38;;;22.10;83.00;;;;;;5040950;28;46744;-72
2022/05/22 12:50:33;;;;;;;2.00;1.00;;;22.20;82.70;;;;;;5039492;28;45193;-71
2022/05/22 12:53:02;;;;;;;2.22;1.20;;;22.10;83.20;;;;;;5037870;28;45713;-73
2022/05/22 12:55:32;;;;;;;2.53;1.30;;;22.10;82.40;;;;;;5044868;28;47335;-73
2022/05/22 12:58:00;;;;;;;2.22;1.13;;;22.10;82.90;;;;;;5041360;28;45397;-73
2022/05/22 13:00:47;;;;;;;2.67;1.30;;;22.10;82.90;;;;;;5042891;28;45247;-73
2022/05/22 13:03:20;;;;;;;2.45;1.40;;;22.00;82.20;;;;;;5039796;28;45224;-73
2022/05/22 13:05:57;;;;;;;2.72;1.30;;;22.00;82.20;;;;;;5035545;28;47784;-73
2022/05/22 13:08:30;;;;;;;45.97;5.30;;;22.00;81.80;;;;;;5039867;28;45459;-70
2022/05/22 13:10:59;;;;;;;25.38;2.40;;;22.10;87.10;;;;;;5039407;28;45659;-70
2022/05/22 13:13:29;;;;;;;12.48;2.63;;;22.10;83.10;;;;;;5039239;28;45586;-71
2022/05/22 13:16:01;;;;;;;11.68;2.00;;;22.00;83.10;;;;;;5040454;28;46256;-70
2022/05/22 13:18:28;;;;;;;11.48;2.63;;;22.00;83.00;;;;;;5038183;28;45356;-69